sensor_id;sensor_type;location;lat;lon;timestamp;P1;durP1;ratioP1;P2;durP2;ratioP2
47153;SDS011;32907;41.412;2.164;2023-02-28T00:00:27;5.40;;;3.92;;
47153;SDS011;32907;41.412;2.164;2023-02-28T00:02:55;4.90;;;3.35;;
47153;SDS011;32907;41.412;2.164;2023-02-28T00:05:24;5.55;;;3.70;;
47153;SDS011;32907;41.412;2.164;2023-02-28T00:07:53;6.70;;;3.47;;
47153;SDS011;32907;41.412;2.164;2023-02-28T00:10:23;4.03;;;2.80;;
47153;SDS011;32907;41.412;2.164;2023-02-28T00:12:54;4.68;;;3.30;;
47153;SDS011;32907;41.412;2.164;2023-02-28T00:15:24;4.55;;;3.30;;
47153;SDS011;32907;41.412;2.164;2023-02-28T00:17:52;4.57;;;3.45;;
47153;SDS011;32907;41.412;2.164;2023-02-28T00:20:20;5.38;;;3.30;;
47153;SDS011;32907;41.412;2.164;2023-02-28T00:22:49;3.85;;;2.80;;
47153;SDS011;32907;41.412;2.164;2023-02-28T00:25:20;3.88;;;3.00;;
47153;SDS011;32907;41.412;2.164;2023-02-28T00:27:51;5.60;;;3.50;;
47153;SDS011;32907;41.412;2.164;2023-02-28T00:30:21;4.25;;;3.38;;
47153;SDS011;32907;41.412;2.164;2023-02-28T00:32:50;6.30;;;3.38;;
47153;SDS011;32907;41.412;2.164;2023-02-28T00:35:18;3.47;;;2.85;;
47153;SDS011;32907;41.412;2.164;2023-02-28T00:37:47;3.78;;;2.78;;
47153;SDS011;32907;41.412;2.164;2023-02-28T00:40:17;4.22;;;3.28;;
47153;SDS011;32907;41.412;2.164;2023-02-28T00:42:45;4.32;;;2.90;;
47153;SDS011;32907;41.412;2.164;2023-02-28T00:45:12;3.70;;;2.40;;
47153;SDS011;32907;41.412;2.164;2023-02-28T00:47:40;3.25;;;2.20;;
47153;SDS011;32907;41.412;2.164;2023-02-28T00:50:09;3.35;;;2.35;;
47153;SDS011;32907;41.412;2.164;2023-02-28T00:52:37;3.08;;;2.30;;
47153;SDS011;32907;41.412;2.164;2023-02-28T00:55:05;3.33;;;2.28;;
47153;SDS011;32907;41.412;2.164;2023-02-28T00:57:33;3.00;;;2.03;;
47153;SDS011;32907;41.412;2.164;2023-02-28T01:00:01;3.55;;;2.38;;
47153;SDS011;32907;41.412;2.164;2023-02-28T01:02:30;3.13;;;2.28;;
47153;SDS011;32907;41.412;2.164;2023-02-28T01:04:58;3.00;;;2.00;;
47153;SDS011;32907;41.412;2.164;2023-02-28T01:07:30;3.03;;;2.10;;
47153;SDS011;32907;41.412;2.164;2023-02-28T01:09:58;2.55;;;1.88;;
47153;SDS011;32907;41.412;2.164;2023-02-28T01:12:26;3.03;;;2.10;;
47153;SDS011;32907;41.412;2.164;2023-02-28T01:14:57;3.50;;;2.22;;
47153;SDS011;32907;41.412;2.164;2023-02-28T01:17:25;3.13;;;1.95;;
47153;SDS011;32907;41.412;2.164;2023-02-28T01:19:54;2.60;;;1.88;;
47153;SDS011;32907;41.412;2.164;2023-02-28T01:22:24;2.83;;;2.10;;
47153;SDS011;32907;41.412;2.164;2023-02-28T01:24:52;3.88;;;2.20;;
47153;SDS011;32907;41.412;2.164;2023-02-28T01:27:20;3.10;;;2.00;;
47153;SDS011;32907;41.412;2.164;2023-02-28T01:29:50;3.20;;;1.90;;
47153;SDS011;32907;41.412;2.164;2023-02-28T01:32:19;3.65;;;2.00;;
47153;SDS011;32907;41.412;2.164;2023-02-28T01:34:47;2.50;;;1.58;;
47153;SDS011;32907;41.412;2.164;2023-02-28T01:37:15;2.65;;;2.03;;
47153;SDS011;32907;41.412;2.164;2023-02-28T01:39:43;3.03;;;2.15;;
47153;SDS011;32907;41.412;2.164;2023-02-28T01:42:11;3.80;;;2.00;;
47153;SDS011;32907;41.412;2.164;2023-02-28T01:47:29;2.97;;;2.10;;
47153;SDS011;32907;41.412;2.164;2023-02-28T01:50:01;2.60;;;2.17;;
47153;SDS011;32907;41.412;2.164;2023-02-28T01:52:32;2.40;;;1.63;;
47153;SDS011;32907;41.412;2.164;2023-02-28T01:55:02;2.45;;;1.90;;
47153;SDS011;32907;41.412;2.164;2023-02-28T01:57:36;2.17;;;1.90;;
47153;SDS011;32907;41.412;2.164;2023-02-28T02:00:13;3.15;;;1.90;;
47153;SDS011;32907;41.412;2.164;2023-02-28T02:02:48;4.05;;;2.03;;
47153;SDS011;32907;41.412;2.164;2023-02-28T02:05:22;3.15;;;1.48;;
47153;SDS011;32907;41.412;2.164;2023-02-28T02:07:55;2.08;;;1.30;;
47153;SDS011;32907;41.412;2.164;2023-02-28T02:13:10;2.30;;;1.50;;
47153;SDS011;32907;41.412;2.164;2023-02-28T02:18:57;2.15;;;1.70;;
47153;SDS011;32907;41.412;2.164;2023-02-28T02:26:51;2.50;;;1.60;;
47153;SDS011;32907;41.412;2.164;2023-02-28T02:35:15;1.95;;;1.30;;
47153;SDS011;32907;41.412;2.164;2023-02-28T02:38:08;4.43;;;1.80;;
47153;SDS011;32907;41.412;2.164;2023-02-28T02:43:41;2.47;;;1.73;;
47153;SDS011;32907;41.412;2.164;2023-02-28T02:46:14;2.63;;;1.50;;
47153;SDS011;32907;41.412;2.164;2023-02-28T02:48:46;3.20;;;1.67;;
47153;SDS011;32907;41.412;2.164;2023-02-28T02:51:16;2.22;;;1.65;;
47153;SDS011;32907;41.412;2.164;2023-02-28T02:53:50;2.08;;;1.55;;
47153;SDS011;32907;41.412;2.164;2023-02-28T02:56:28;1.85;;;1.55;;
47153;SDS011;32907;41.412;2.164;2023-02-28T02:59:01;3.25;;;1.40;;
47153;SDS011;32907;41.412;2.164;2023-02-28T03:01:32;2.28;;;1.55;;
47153;SDS011;32907;41.412;2.164;2023-02-28T03:04:04;2.47;;;1.48;;
47153;SDS011;32907;41.412;2.164;2023-02-28T03:06:37;2.08;;;1.48;;
47153;SDS011;32907;41.412;2.164;2023-02-28T03:09:05;2.53;;;1.40;;
47153;SDS011;32907;41.412;2.164;2023-02-28T03:11:34;2.55;;;1.55;;
47153;SDS011;32907;41.412;2.164;2023-02-28T03:14:10;1.85;;;1.50;;
47153;SDS011;32907;41.412;2.164;2023-02-28T03:28:00;1.85;;;1.45;;
47153;SDS011;32907;41.412;2.164;2023-02-28T03:30:51;2.30;;;1.40;;
47153;SDS011;32907;41.412;2.164;2023-02-28T03:33:27;2.30;;;1.35;;
47153;SDS011;32907;41.412;2.164;2023-02-28T03:36:04;2.65;;;1.80;;
47153;SDS011;32907;41.412;2.164;2023-02-28T03:41:25;5.23;;;2.83;;
47153;SDS011;32907;41.412;2.164;2023-02-28T03:44:02;4.00;;;2.47;;
47153;SDS011;32907;41.412;2.164;2023-02-28T03:46:36;3.10;;;2.38;;
47153;SDS011;32907;41.412;2.164;2023-02-28T03:49:16;3.17;;;2.45;;
47153;SDS011;32907;41.412;2.164;2023-02-28T03:51:50;3.40;;;2.05;;
47153;SDS011;32907;41.412;2.164;2023-02-28T03:54:23;3.70;;;2.33;;
47153;SDS011;32907;41.412;2.164;2023-02-28T03:59:41;3.20;;;1.95;;
47153;SDS011;32907;41.412;2.164;2023-02-28T04:02:13;3.03;;;1.70;;
47153;SDS011;32907;41.412;2.164;2023-02-28T04:04:41;2.70;;;2.20;;
47153;SDS011;32907;41.412;2.164;2023-02-28T04:07:16;3.63;;;2.00;;
47153;SDS011;32907;41.412;2.164;2023-02-28T04:09:44;2.65;;;1.58;;
47153;SDS011;32907;41.412;2.164;2023-02-28T04:12:12;2.38;;;1.58;;
47153;SDS011;32907;41.412;2.164;2023-02-28T04:14:40;3.38;;;1.92;;
47153;SDS011;32907;41.412;2.164;2023-02-28T04:17:08;2.22;;;1.33;;
47153;SDS011;32907;41.412;2.164;2023-02-28T04:19:36;3.75;;;1.73;;
47153;SDS011;32907;41.412;2.164;2023-02-28T04:22:04;2.53;;;1.70;;
47153;SDS011;32907;41.412;2.164;2023-02-28T04:24:32;2.30;;;1.70;;
47153;SDS011;32907;41.412;2.164;2023-02-28T04:27:00;2.70;;;1.70;;
47153;SDS011;32907;41.412;2.164;2023-02-28T04:29:28;1.95;;;1.38;;
47153;SDS011;32907;41.412;2.164;2023-02-28T04:32:02;3.78;;;1.65;;
47153;SDS011;32907;41.412;2.164;2023-02-28T04:34:31;2.33;;;1.58;;
47153;SDS011;32907;41.412;2.164;2023-02-28T04:36:59;2.65;;;1.60;;
47153;SDS011;32907;41.412;2.164;2023-02-28T04:39:40;2.83;;;1.50;;
47153;SDS011;32907;41.412;2.164;2023-02-28T04:42:09;2.10;;;1.52;;
47153;SDS011;32907;41.412;2.164;2023-02-28T04:44:37;1.90;;;1.50;;
47153;SDS011;32907;41.412;2.164;2023-02-28T04:47:05;1.70;;;1.27;;
47153;SDS011;32907;41.412;2.164;2023-02-28T04:49:33;3.08;;;1.70;;
47153;SDS011;32907;41.412;2.164;2023-02-28T04:52:01;2.20;;;1.45;;
47153;SDS011;32907;41.412;2.164;2023-02-28T04:54:29;4.22;;;1.50;;
47153;SDS011;32907;41.412;2.164;2023-02-28T04:56:57;1.38;;;1.02;;
47153;SDS011;32907;41.412;2.164;2023-02-28T04:59:25;2.65;;;1.33;;
47153;SDS011;32907;41.412;2.164;2023-02-28T05:01:53;1.88;;;1.27;;
47153;SDS011;32907;41.412;2.164;2023-02-28T05:04:21;4.35;;;1.20;;
47153;SDS011;32907;41.412;2.164;2023-02-28T05:06:49;1.90;;;1.50;;
47153;SDS011;32907;41.412;2.164;2023-02-28T05:09:17;2.40;;;1.33;;
47153;SDS011;32907;41.412;2.164;2023-02-28T05:11:45;1.88;;;1.23;;
47153;SDS011;32907;41.412;2.164;2023-02-28T05:14:13;1.25;;;1.10;;
47153;SDS011;32907;41.412;2.164;2023-02-28T05:16:42;2.33;;;1.40;;
47153;SDS011;32907;41.412;2.164;2023-02-28T05:19:10;2.38;;;1.60;;
47153;SDS011;32907;41.412;2.164;2023-02-28T05:21:38;2.10;;;1.40;;
47153;SDS011;32907;41.412;2.164;2023-02-28T05:24:11;1.50;;;1.13;;
47153;SDS011;32907;41.412;2.164;2023-02-28T05:26:40;5.00;;;2.60;;
47153;SDS011;32907;41.412;2.164;2023-02-28T05:29:09;4.78;;;3.05;;
47153;SDS011;32907;41.412;2.164;2023-02-28T05:31:37;4.90;;;3.00;;
47153;SDS011;32907;41.412;2.164;2023-02-28T05:34:07;3.70;;;2.80;;
47153;SDS011;32907;41.412;2.164;2023-02-28T05:36:38;4.97;;;2.50;;
47153;SDS011;32907;41.412;2.164;2023-02-28T05:39:07;2.70;;;2.08;;
47153;SDS011;32907;41.412;2.164;2023-02-28T05:41:40;2.67;;;1.83;;
47153;SDS011;32907;41.412;2.164;2023-02-28T05:44:09;1.98;;;1.33;;
47153;SDS011;32907;41.412;2.164;2023-02-28T05:46:39;6.15;;;4.70;;
47153;SDS011;32907;41.412;2.164;2023-02-28T05:49:07;9.50;;;7.25;;
47153;SDS011;32907;41.412;2.164;2023-02-28T05:51:35;14.77;;;11.32;;
47153;SDS011;32907;41.412;2.164;2023-02-28T05:54:07;20.35;;;15.18;;
47153;SDS011;32907;41.412;2.164;2023-02-28T05:56:35;15.23;;;11.52;;
47153;SDS011;32907;41.412;2.164;2023-02-28T05:59:07;10.77;;;8.80;;
47153;SDS011;32907;41.412;2.164;2023-02-28T06:01:42;7.53;;;6.28;;
47153;SDS011;32907;41.412;2.164;2023-02-28T06:04:18;7.75;;;5.55;;
47153;SDS011;32907;41.412;2.164;2023-02-28T06:06:58;6.10;;;4.50;;
47153;SDS011;32907;41.412;2.164;2023-02-28T06:09:26;7.53;;;5.35;;
47153;SDS011;32907;41.412;2.164;2023-02-28T06:11:54;7.28;;;6.13;;
47153;SDS011;32907;41.412;2.164;2023-02-28T06:14:24;5.90;;;4.63;;
47153;SDS011;32907;41.412;2.164;2023-02-28T06:16:52;4.80;;;3.53;;
47153;SDS011;32907;41.412;2.164;2023-02-28T06:19:20;4.18;;;3.28;;
47153;SDS011;32907;41.412;2.164;2023-02-28T06:21:50;6.40;;;3.75;;
47153;SDS011;32907;41.412;2.164;2023-02-28T06:24:20;6.30;;;4.18;;
47153;SDS011;32907;41.412;2.164;2023-02-28T06:26:48;5.93;;;4.32;;
47153;SDS011;32907;41.412;2.164;2023-02-28T06:29:17;6.93;;;4.35;;
47153;SDS011;32907;41.412;2.164;2023-02-28T06:31:45;6.18;;;3.80;;
47153;SDS011;32907;41.412;2.164;2023-02-28T06:34:14;4.18;;;3.42;;
47153;SDS011;32907;41.412;2.164;2023-02-28T06:36:42;4.47;;;3.30;;
47153;SDS011;32907;41.412;2.164;2023-02-28T06:39:16;3.45;;;2.53;;
47153;SDS011;32907;41.412;2.164;2023-02-28T06:41:44;3.88;;;2.20;;
47153;SDS011;32907;41.412;2.164;2023-02-28T06:46:50;4.25;;;2.58;;
47153;SDS011;32907;41.412;2.164;2023-02-28T06:49:22;3.00;;;2.13;;
47153;SDS011;32907;41.412;2.164;2023-02-28T06:51:50;3.65;;;2.15;;
47153;SDS011;32907;41.412;2.164;2023-02-28T06:54:18;2.65;;;1.85;;
47153;SDS011;32907;41.412;2.164;2023-02-28T06:56:45;5.35;;;2.00;;
47153;SDS011;32907;41.412;2.164;2023-02-28T06:59:14;4.20;;;1.92;;
47153;SDS011;32907;41.412;2.164;2023-02-28T07:01:42;5.45;;;2.10;;
47153;SDS011;32907;41.412;2.164;2023-02-28T07:04:10;3.53;;;2.00;;
47153;SDS011;32907;41.412;2.164;2023-02-28T07:06:40;3.78;;;2.35;;
47153;SDS011;32907;41.412;2.164;2023-02-28T07:09:08;3.95;;;2.00;;
47153;SDS011;32907;41.412;2.164;2023-02-28T07:11:39;5.50;;;2.90;;
47153;SDS011;32907;41.412;2.164;2023-02-28T07:14:09;5.43;;;2.80;;
47153;SDS011;32907;41.412;2.164;2023-02-28T07:16:37;4.32;;;2.78;;
47153;SDS011;32907;41.412;2.164;2023-02-28T07:19:05;4.20;;;3.10;;
47153;SDS011;32907;41.412;2.164;2023-02-28T07:21:33;4.00;;;2.80;;
47153;SDS011;32907;41.412;2.164;2023-02-28T07:24:01;4.57;;;3.03;;
47153;SDS011;32907;41.412;2.164;2023-02-28T07:26:29;3.85;;;2.60;;
47153;SDS011;32907;41.412;2.164;2023-02-28T07:28:57;4.70;;;2.83;;
47153;SDS011;32907;41.412;2.164;2023-02-28T07:31:25;4.03;;;3.00;;
47153;SDS011;32907;41.412;2.164;2023-02-28T07:33:53;3.65;;;2.70;;
47153;SDS011;32907;41.412;2.164;2023-02-28T07:36:21;4.93;;;2.55;;
47153;SDS011;32907;41.412;2.164;2023-02-28T07:38:49;4.40;;;2.72;;
47153;SDS011;32907;41.412;2.164;2023-02-28T07:41:21;6.45;;;3.78;;
47153;SDS011;32907;41.412;2.164;2023-02-28T07:43:52;5.18;;;2.88;;
47153;SDS011;32907;41.412;2.164;2023-02-28T07:46:21;4.30;;;2.80;;
47153;SDS011;32907;41.412;2.164;2023-02-28T07:48:49;3.80;;;2.58;;
47153;SDS011;32907;41.412;2.164;2023-02-28T07:51:16;4.72;;;2.40;;
47153;SDS011;32907;41.412;2.164;2023-02-28T07:53:46;3.80;;;2.40;;
47153;SDS011;32907;41.412;2.164;2023-02-28T07:56:14;3.03;;;2.35;;
47153;SDS011;32907;41.412;2.164;2023-02-28T07:58:42;6.57;;;2.65;;
47153;SDS011;32907;41.412;2.164;2023-02-28T08:01:10;5.60;;;2.75;;
47153;SDS011;32907;41.412;2.164;2023-02-28T08:03:39;5.40;;;3.42;;
47153;SDS011;32907;41.412;2.164;2023-02-28T08:06:08;9.27;;;4.40;;
47153;SDS011;32907;41.412;2.164;2023-02-28T08:08:43;9.85;;;5.60;;
47153;SDS011;32907;41.412;2.164;2023-02-28T08:11:11;10.80;;;6.10;;
47153;SDS011;32907;41.412;2.164;2023-02-28T08:13:39;10.57;;;4.15;;
47153;SDS011;32907;41.412;2.164;2023-02-28T08:16:10;6.28;;;4.28;;
47153;SDS011;32907;41.412;2.164;2023-02-28T08:18:38;6.22;;;4.10;;
47153;SDS011;32907;41.412;2.164;2023-02-28T08:21:09;8.63;;;3.72;;
47153;SDS011;32907;41.412;2.164;2023-02-28T08:23:37;5.38;;;3.50;;
47153;SDS011;32907;41.412;2.164;2023-02-28T08:26:06;8.15;;;3.83;;
47153;SDS011;32907;41.412;2.164;2023-02-28T08:28:34;6.45;;;3.20;;
47153;SDS011;32907;41.412;2.164;2023-02-28T08:31:06;8.00;;;3.35;;
47153;SDS011;32907;41.412;2.164;2023-02-28T08:33:36;5.50;;;3.10;;
47153;SDS011;32907;41.412;2.164;2023-02-28T08:36:07;6.75;;;3.40;;
47153;SDS011;32907;41.412;2.164;2023-02-28T08:38:37;4.88;;;3.20;;
47153;SDS011;32907;41.412;2.164;2023-02-28T08:41:06;4.65;;;3.38;;
47153;SDS011;32907;41.412;2.164;2023-02-28T08:43:36;6.50;;;3.13;;
47153;SDS011;32907;41.412;2.164;2023-02-28T08:46:05;5.65;;;3.30;;
47153;SDS011;32907;41.412;2.164;2023-02-28T08:48:35;6.63;;;3.70;;
47153;SDS011;32907;41.412;2.164;2023-02-28T08:51:09;4.22;;;2.97;;
47153;SDS011;32907;41.412;2.164;2023-02-28T08:53:39;5.38;;;3.35;;
47153;SDS011;32907;41.412;2.164;2023-02-28T08:56:14;5.32;;;3.85;;
47153;SDS011;32907;41.412;2.164;2023-02-28T08:58:43;5.68;;;4.13;;
47153;SDS011;32907;41.412;2.164;2023-02-28T09:01:14;6.55;;;3.60;;
47153;SDS011;32907;41.412;2.164;2023-02-28T09:03:55;8.07;;;3.83;;
47153;SDS011;32907;41.412;2.164;2023-02-28T09:06:24;6.15;;;3.45;;
47153;SDS011;32907;41.412;2.164;2023-02-28T09:08:58;7.60;;;3.80;;
47153;SDS011;32907;41.412;2.164;2023-02-28T09:11:28;5.25;;;3.60;;
47153;SDS011;32907;41.412;2.164;2023-02-28T09:13:57;5.70;;;3.53;;
47153;SDS011;32907;41.412;2.164;2023-02-28T09:16:26;7.22;;;3.72;;
47153;SDS011;32907;41.412;2.164;2023-02-28T09:18:54;5.05;;;3.97;;
47153;SDS011;32907;41.412;2.164;2023-02-28T09:21:22;6.72;;;3.67;;
47153;SDS011;32907;41.412;2.164;2023-02-28T09:23:50;6.45;;;4.15;;
47153;SDS011;32907;41.412;2.164;2023-02-28T09:26:21;6.95;;;4.30;;
47153;SDS011;32907;41.412;2.164;2023-02-28T09:29:05;5.65;;;3.90;;
47153;SDS011;32907;41.412;2.164;2023-02-28T09:31:34;7.60;;;4.30;;
47153;SDS011;32907;41.412;2.164;2023-02-28T09:34:03;13.23;;;6.72;;
47153;SDS011;32907;41.412;2.164;2023-02-28T09:36:33;11.48;;;7.97;;
47153;SDS011;32907;41.412;2.164;2023-02-28T09:39:14;20.08;;;8.27;;
47153;SDS011;32907;41.412;2.164;2023-02-28T09:41:44;9.35;;;5.63;;
47153;SDS011;32907;41.412;2.164;2023-02-28T09:47:07;6.78;;;4.32;;
47153;SDS011;32907;41.412;2.164;2023-02-28T09:49:58;6.22;;;3.72;;
47153;SDS011;32907;41.412;2.164;2023-02-28T09:52:35;5.88;;;3.47;;
47153;SDS011;32907;41.412;2.164;2023-02-28T09:57:50;4.65;;;3.50;;
47153;SDS011;32907;41.412;2.164;2023-02-28T10:00:29;5.65;;;3.10;;
47153;SDS011;32907;41.412;2.164;2023-02-28T10:06:04;5.47;;;3.53;;
47153;SDS011;32907;41.412;2.164;2023-02-28T10:08:39;3.78;;;2.70;;
47153;SDS011;32907;41.412;2.164;2023-02-28T10:11:14;6.03;;;2.80;;
47153;SDS011;32907;41.412;2.164;2023-02-28T10:14:31;3.53;;;2.65;;
47153;SDS011;32907;41.412;2.164;2023-02-28T10:16:45;8.80;;;3.25;;
47153;SDS011;32907;41.412;2.164;2023-02-28T10:19:35;5.15;;;3.22;;
47153;SDS011;32907;41.412;2.164;2023-02-28T10:22:17;4.50;;;3.05;;
47153;SDS011;32907;41.412;2.164;2023-02-28T10:24:51;6.00;;;3.45;;
47153;SDS011;32907;41.412;2.164;2023-02-28T10:27:24;3.88;;;2.97;;
47153;SDS011;32907;41.412;2.164;2023-02-28T10:29:57;4.22;;;2.95;;
47153;SDS011;32907;41.412;2.164;2023-02-28T10:35:06;4.50;;;2.97;;
47153;SDS011;32907;41.412;2.164;2023-02-28T10:37:52;12.45;;;6.35;;
47153;SDS011;32907;41.412;2.164;2023-02-28T10:42:57;5.70;;;3.28;;
47153;SDS011;32907;41.412;2.164;2023-02-28T10:45:30;4.80;;;3.35;;
47153;SDS011;32907;41.412;2.164;2023-02-28T10:48:03;4.40;;;3.20;;
47153;SDS011;32907;41.412;2.164;2023-02-28T11:07:20;20.92;;;4.95;;
47153;SDS011;32907;41.412;2.164;2023-02-28T11:09:52;11.95;;;4.32;;
47153;SDS011;32907;41.412;2.164;2023-02-28T11:12:29;9.45;;;4.13;;
47153;SDS011;32907;41.412;2.164;2023-02-28T11:15:32;12.55;;;5.00;;
47153;SDS011;32907;41.412;2.164;2023-02-28T11:18:03;9.38;;;4.70;;
47153;SDS011;32907;41.412;2.164;2023-02-28T11:20:40;11.95;;;5.05;;
47153;SDS011;32907;41.412;2.164;2023-02-28T11:23:11;10.77;;;4.35;;
47153;SDS011;32907;41.412;2.164;2023-02-28T11:25:41;9.10;;;3.65;;
47153;SDS011;32907;41.412;2.164;2023-02-28T11:28:26;5.47;;;3.03;;
47153;SDS011;32907;41.412;2.164;2023-02-28T11:33:53;8.20;;;3.83;;
47153;SDS011;32907;41.412;2.164;2023-02-28T11:38:53;4.97;;;3.30;;
47153;SDS011;32907;41.412;2.164;2023-02-28T11:51:52;4.15;;;3.10;;
47153;SDS011;32907;41.412;2.164;2023-02-28T11:57:00;9.23;;;3.30;;
47153;SDS011;32907;41.412;2.164;2023-02-28T12:18:24;5.53;;;3.33;;
47153;SDS011;32907;41.412;2.164;2023-02-28T12:27:17;5.75;;;3.28;;
47153;SDS011;32907;41.412;2.164;2023-02-28T12:29:54;7.53;;;3.90;;
47153;SDS011;32907;41.412;2.164;2023-02-28T12:32:39;8.30;;;3.40;;
47153;SDS011;32907;41.412;2.164;2023-02-28T12:37:50;9.63;;;4.90;;
47153;SDS011;32907;41.412;2.164;2023-02-28T12:40:38;9.27;;;4.65;;
47153;SDS011;32907;41.412;2.164;2023-02-28T12:43:12;7.28;;;4.10;;
47153;SDS011;32907;41.412;2.164;2023-02-28T12:45:46;10.07;;;4.97;;
47153;SDS011;32907;41.412;2.164;2023-02-28T12:48:39;7.45;;;4.38;;
47153;SDS011;32907;41.412;2.164;2023-02-28T12:51:24;9.65;;;5.70;;
47153;SDS011;32907;41.412;2.164;2023-02-28T12:59:18;10.43;;;8.38;;
47153;SDS011;32907;41.412;2.164;2023-02-28T13:09:54;20.15;;;11.13;;
47153;SDS011;32907;41.412;2.164;2023-02-28T13:12:25;14.52;;;10.02;;
47153;SDS011;32907;41.412;2.164;2023-02-28T13:15:06;10.52;;;7.70;;
47153;SDS011;32907;41.412;2.164;2023-02-28T13:17:43;9.95;;;6.72;;
47153;SDS011;32907;41.412;2.164;2023-02-28T13:20:18;8.00;;;6.03;;
47153;SDS011;32907;41.412;2.164;2023-02-28T13:22:53;7.55;;;5.28;;
47153;SDS011;32907;41.412;2.164;2023-02-28T13:28:55;6.10;;;4.50;;
47153;SDS011;32907;41.412;2.164;2023-02-28T13:31:23;6.22;;;4.40;;
47153;SDS011;32907;41.412;2.164;2023-02-28T13:36:27;6.35;;;3.33;;
47153;SDS011;32907;41.412;2.164;2023-02-28T13:39:00;6.57;;;4.07;;
47153;SDS011;32907;41.412;2.164;2023-02-28T14:05:18;6.85;;;4.88;;
47153;SDS011;32907;41.412;2.164;2023-02-28T14:07:53;20.33;;;6.75;;
47153;SDS011;32907;41.412;2.164;2023-02-28T14:10:26;17.05;;;6.70;;
47153;SDS011;32907;41.412;2.164;2023-02-28T14:18:30;14.10;;;5.60;;
47153;SDS011;32907;41.412;2.164;2023-02-28T14:24:00;11.63;;;6.15;;
47153;SDS011;32907;41.412;2.164;2023-02-28T14:32:28;7.07;;;4.88;;
47153;SDS011;32907;41.412;2.164;2023-02-28T14:37:47;10.07;;;5.93;;
47153;SDS011;32907;41.412;2.164;2023-02-28T14:40:19;11.55;;;6.13;;
47153;SDS011;32907;41.412;2.164;2023-02-28T14:42:54;9.07;;;5.53;;
47153;SDS011;32907;41.412;2.164;2023-02-28T14:45:25;10.15;;;5.13;;
47153;SDS011;32907;41.412;2.164;2023-02-28T14:47:57;7.97;;;4.72;;
47153;SDS011;32907;41.412;2.164;2023-02-28T14:50:28;7.80;;;4.68;;
47153;SDS011;32907;41.412;2.164;2023-02-28T14:52:58;6.32;;;4.85;;
47153;SDS011;32907;41.412;2.164;2023-02-28T14:55:28;10.88;;;5.00;;
47153;SDS011;32907;41.412;2.164;2023-02-28T14:57:58;5.63;;;4.50;;
47153;SDS011;32907;41.412;2.164;2023-02-28T15:00:34;5.65;;;3.80;;
47153;SDS011;32907;41.412;2.164;2023-02-28T15:03:18;6.20;;;3.67;;
47153;SDS011;32907;41.412;2.164;2023-02-28T15:06:02;6.80;;;4.45;;
47153;SDS011;32907;41.412;2.164;2023-02-28T15:08:32;6.55;;;4.75;;
47153;SDS011;32907;41.412;2.164;2023-02-28T15:11:07;8.80;;;4.40;;
47153;SDS011;32907;41.412;2.164;2023-02-28T15:13:44;5.18;;;4.05;;
47153;SDS011;32907;41.412;2.164;2023-02-28T15:19:02;5.95;;;4.30;;
47153;SDS011;32907;41.412;2.164;2023-02-28T15:21:35;5.60;;;4.28;;
47153;SDS011;32907;41.412;2.164;2023-02-28T15:24:21;6.35;;;4.40;;
47153;SDS011;32907;41.412;2.164;2023-02-28T15:27:14;6.90;;;3.83;;
47153;SDS011;32907;41.412;2.164;2023-02-28T15:29:51;6.90;;;4.20;;
47153;SDS011;32907;41.412;2.164;2023-02-28T15:35:48;5.18;;;4.20;;
47153;SDS011;32907;41.412;2.164;2023-02-28T15:37:53;7.22;;;4.10;;
47153;SDS011;32907;41.412;2.164;2023-02-28T15:40:26;5.68;;;4.10;;
47153;SDS011;32907;41.412;2.164;2023-02-28T15:42:59;6.75;;;3.90;;
47153;SDS011;32907;41.412;2.164;2023-02-28T15:45:28;5.55;;;3.58;;
47153;SDS011;32907;41.412;2.164;2023-02-28T15:48:12;7.68;;;3.78;;
47153;SDS011;32907;41.412;2.164;2023-02-28T15:50:56;5.20;;;3.50;;
47153;SDS011;32907;41.412;2.164;2023-02-28T15:53:30;5.18;;;3.30;;
47153;SDS011;32907;41.412;2.164;2023-02-28T15:56:02;6.90;;;3.50;;
47153;SDS011;32907;41.412;2.164;2023-02-28T15:58:41;5.70;;;3.38;;
47153;SDS011;32907;41.412;2.164;2023-02-28T16:01:17;4.28;;;3.35;;
47153;SDS011;32907;41.412;2.164;2023-02-28T16:03:48;7.72;;;3.58;;
47153;SDS011;32907;41.412;2.164;2023-02-28T16:09:04;6.65;;;3.53;;
47153;SDS011;32907;41.412;2.164;2023-02-28T16:11:36;4.85;;;3.08;;
47153;SDS011;32907;41.412;2.164;2023-02-28T16:14:27;5.75;;;3.97;;
47153;SDS011;32907;41.412;2.164;2023-02-28T16:17:04;4.60;;;3.70;;
47153;SDS011;32907;41.412;2.164;2023-02-28T16:19:36;6.47;;;4.25;;
47153;SDS011;32907;41.412;2.164;2023-02-28T16:22:03;6.45;;;4.93;;
47153;SDS011;32907;41.412;2.164;2023-02-28T16:24:31;5.03;;;4.30;;
47153;SDS011;32907;41.412;2.164;2023-02-28T16:26:59;4.70;;;3.90;;
47153;SDS011;32907;41.412;2.164;2023-02-28T16:29:32;4.90;;;3.70;;
47153;SDS011;32907;41.412;2.164;2023-02-28T16:32:04;5.82;;;3.42;;
47153;SDS011;32907;41.412;2.164;2023-02-28T16:34:35;4.60;;;3.38;;
47153;SDS011;32907;41.412;2.164;2023-02-28T16:37:04;7.20;;;3.67;;
47153;SDS011;32907;41.412;2.164;2023-02-28T16:39:37;6.53;;;4.40;;
47153;SDS011;32907;41.412;2.164;2023-02-28T16:42:05;6.03;;;3.88;;
47153;SDS011;32907;41.412;2.164;2023-02-28T16:44:34;8.23;;;4.18;;
47153;SDS011;32907;41.412;2.164;2023-02-28T16:47:03;8.50;;;4.43;;
47153;SDS011;32907;41.412;2.164;2023-02-28T16:49:31;8.63;;;5.28;;
47153;SDS011;32907;41.412;2.164;2023-02-28T16:51:59;6.70;;;4.55;;
47153;SDS011;32907;41.412;2.164;2023-02-28T16:54:27;10.00;;;4.90;;
47153;SDS011;32907;41.412;2.164;2023-02-28T16:56:55;12.50;;;5.13;;
47153;SDS011;32907;41.412;2.164;2023-02-28T16:59:23;8.55;;;4.85;;
47153;SDS011;32907;41.412;2.164;2023-02-28T17:01:54;12.75;;;4.28;;
47153;SDS011;32907;41.412;2.164;2023-02-28T17:04:25;11.38;;;5.22;;
47153;SDS011;32907;41.412;2.164;2023-02-28T17:06:54;12.68;;;4.70;;
47153;SDS011;32907;41.412;2.164;2023-02-28T17:09:23;8.43;;;4.22;;
47153;SDS011;32907;41.412;2.164;2023-02-28T17:12:07;10.30;;;4.55;;
47153;SDS011;32907;41.412;2.164;2023-02-28T17:14:37;8.80;;;5.40;;
47153;SDS011;32907;41.412;2.164;2023-02-28T17:17:06;7.93;;;5.10;;
47153;SDS011;32907;41.412;2.164;2023-02-28T17:19:35;8.85;;;6.65;;
47153;SDS011;32907;41.412;2.164;2023-02-28T17:22:03;11.40;;;7.40;;
47153;SDS011;32907;41.412;2.164;2023-02-28T17:24:31;11.30;;;7.80;;
47153;SDS011;32907;41.412;2.164;2023-02-28T17:26:58;10.43;;;6.53;;
47153;SDS011;32907;41.412;2.164;2023-02-28T17:29:27;10.52;;;6.75;;
47153;SDS011;32907;41.412;2.164;2023-02-28T17:31:55;9.85;;;6.60;;
47153;SDS011;32907;41.412;2.164;2023-02-28T17:34:26;13.52;;;7.00;;
47153;SDS011;32907;41.412;2.164;2023-02-28T17:36:54;9.63;;;6.80;;
47153;SDS011;32907;41.412;2.164;2023-02-28T17:39:22;9.57;;;6.35;;
47153;SDS011;32907;41.412;2.164;2023-02-28T17:41:53;7.70;;;6.38;;
47153;SDS011;32907;41.412;2.164;2023-02-28T17:44:23;11.10;;;6.25;;
47153;SDS011;32907;41.412;2.164;2023-02-28T17:46:53;9.27;;;5.80;;
47153;SDS011;32907;41.412;2.164;2023-02-28T17:49:22;7.75;;;6.07;;
47153;SDS011;32907;41.412;2.164;2023-02-28T17:51:50;8.20;;;6.28;;
47153;SDS011;32907;41.412;2.164;2023-02-28T17:54:17;6.53;;;5.45;;
47153;SDS011;32907;41.412;2.164;2023-02-28T17:56:45;8.32;;;5.68;;
47153;SDS011;32907;41.412;2.164;2023-02-28T17:59:13;7.57;;;6.75;;
47153;SDS011;32907;41.412;2.164;2023-02-28T18:01:41;7.07;;;5.40;;
47153;SDS011;32907;41.412;2.164;2023-02-28T18:04:09;9.85;;;6.22;;
47153;SDS011;32907;41.412;2.164;2023-02-28T18:06:38;15.68;;;10.98;;
47153;SDS011;32907;41.412;2.164;2023-02-28T18:09:14;13.18;;;8.50;;
47153;SDS011;32907;41.412;2.164;2023-02-28T18:11:50;12.02;;;8.25;;
47153;SDS011;32907;41.412;2.164;2023-02-28T18:14:19;9.90;;;6.78;;
47153;SDS011;32907;41.412;2.164;2023-02-28T18:16:51;9.20;;;6.30;;
47153;SDS011;32907;41.412;2.164;2023-02-28T18:19:20;9.15;;;6.20;;